sensor_id;sensor_type;location;lat;lon;timestamp;temperature;humidity
53152;DHT22;39234;53.158;6.322;2023-06-22T00:00:52;15.30;99.90
53152;DHT22;39234;53.158;6.322;2023-06-22T00:03:19;15.30;99.90
53152;DHT22;39234;53.158;6.322;2023-06-22T00:05:46;15.30;99.90
53152;DHT22;39234;53.158;6.322;2023-06-22T00:08:12;15.30;99.90
53152;DHT22;39234;53.158;6.322;2023-06-22T00:10:38;15.00;99.90
53152;DHT22;39234;53.158;6.322;2023-06-22T00:13:05;15.10;99.90
53152;DHT22;39234;53.158;6.322;2023-06-22T00:15:31;15.20;99.90
53152;DHT22;39234;53.158;6.322;2023-06-22T00:17:56;15.30;99.90
53152;DHT22;39234;53.158;6.322;2023-06-22T00:20:23;15.10;99.90
53152;DHT22;39234;53.158;6.322;2023-06-22T00:22:56;15.00;99.90
53152;DHT22;39234;53.158;6.322;2023-06-22T00:25:23;14.80;99.90
53152;DHT22;39234;53.158;6.322;2023-06-22T00:27:49;14.80;99.90
53152;DHT22;39234;53.158;6.322;2023-06-22T00:30:16;15.00;99.90
53152;DHT22;39234;53.158;6.322;2023-06-22T00:32:45;14.90;99.90
53152;DHT22;39234;53.158;6.322;2023-06-22T00:35:14;14.90;99.90
53152;DHT22;39234;53.158;6.322;2023-06-22T00:37:40;14.90;99.90
53152;DHT22;39234;53.158;6.322;2023-06-22T00:40:09;14.70;99.90
53152;DHT22;39234;53.158;6.322;2023-06-22T00:42:38;14.90;99.90
53152;DHT22;39234;53.158;6.322;2023-06-22T00:45:05;15.70;99.90
53152;DHT22;39234;53.158;6.322;2023-06-22T00:47:31;15.00;99.90
53152;DHT22;39234;53.158;6.322;2023-06-22T00:49:58;15.10;99.90
53152;DHT22;39234;53.158;6.322;2023-06-22T00:52:24;14.80;99.90
53152;DHT22;39234;53.158;6.322;2023-06-22T00:54:56;14.70;99.90
53152;DHT22;39234;53.158;6.322;2023-06-22T00:57:22;14.90;99.90
53152;DHT22;39234;53.158;6.322;2023-06-22T00:59:51;14.90;99.90
53152;DHT22;39234;53.158;6.322;2023-06-22T01:02:17;14.80;99.90
53152;DHT22;39234;53.158;6.322;2023-06-22T01:04:42;14.70;99.90
53152;DHT22;39234;53.158;6.322;2023-06-22T01:10:16;14.50;99.90
53152;DHT22;39234;53.158;6.322;2023-06-22T01:12:47;14.70;99.90
53152;DHT22;39234;53.158;6.322;2023-06-22T01:15:21;14.50;99.90
53152;DHT22;39234;53.158;6.322;2023-06-22T01:17:49;14.60;99.90
53152;DHT22;39234;53.158;6.322;2023-06-22T01:20:17;14.60;99.90
53152;DHT22;39234;53.158;6.322;2023-06-22T01:23:10;14.40;99.90
53152;DHT22;39234;53.158;6.322;2023-06-22T01:28:44;14.40;99.90
53152;DHT22;39234;53.158;6.322;2023-06-22T01:31:13;14.50;99.90
53152;DHT22;39234;53.158;6.322;2023-06-22T01:33:43;14.50;99.90
53152;DHT22;39234;53.158;6.322;2023-06-22T01:36:10;14.40;99.90
53152;DHT22;39234;53.158;6.322;2023-06-22T01:38:37;14.40;99.90
53152;DHT22;39234;53.158;6.322;2023-06-22T01:41:04;15.10;99.90
53152;DHT22;39234;53.158;6.322;2023-06-22T01:43:30;14.40;99.90
53152;DHT22;39234;53.158;6.322;2023-06-22T01:45:58;14.40;99.90
53152;DHT22;39234;53.158;6.322;2023-06-22T01:48:24;14.40;99.90
53152;DHT22;39234;53.158;6.322;2023-06-22T01:50:52;14.30;99.90
53152;DHT22;39234;53.158;6.322;2023-06-22T01:53:21;14.40;99.90
53152;DHT22;39234;53.158;6.322;2023-06-22T01:55:47;14.50;99.90
53152;DHT22;39234;53.158;6.322;2023-06-22T01:58:13;14.30;99.90
53152;DHT22;39234;53.158;6.322;2023-06-22T02:00:41;14.20;99.90
53152;DHT22;39234;53.158;6.322;2023-06-22T02:03:13;14.30;99.90
53152;DHT22;39234;53.158;6.322;2023-06-22T02:05:49;14.30;99.90
53152;DHT22;39234;53.158;6.322;2023-06-22T02:08:28;14.20;99.90
53152;DHT22;39234;53.158;6.322;2023-06-22T02:10:55;14.30;99.90
53152;DHT22;39234;53.158;6.322;2023-06-22T02:13:24;14.10;99.90
53152;DHT22;39234;53.158;6.322;2023-06-22T02:15:50;13.80;99.90
53152;DHT22;39234;53.158;6.322;2023-06-22T02:18:16;14.20;99.90
53152;DHT22;39234;53.158;6.322;2023-06-22T02:20:42;14.20;99.90
53152;DHT22;39234;53.158;6.322;2023-06-22T02:23:08;14.00;99.90
53152;DHT22;39234;53.158;6.322;2023-06-22T02:25:34;14.10;99.90
53152;DHT22;39234;53.158;6.322;2023-06-22T02:28:01;14.10;99.90
53152;DHT22;39234;53.158;6.322;2023-06-22T02:30:27;14.30;99.90
53152;DHT22;39234;53.158;6.322;2023-06-22T02:32:52;14.10;99.90
53152;DHT22;39234;53.158;6.322;2023-06-22T02:35:28;14.10;99.90
53152;DHT22;39234;53.158;6.322;2023-06-22T02:37:58;14.00;99.90
53152;DHT22;39234;53.158;6.322;2023-06-22T02:40:25;13.80;99.90
53152;DHT22;39234;53.158;6.322;2023-06-22T02:42:50;13.80;99.90
53152;DHT22;39234;53.158;6.322;2023-06-22T02:45:16;14.00;99.90
53152;DHT22;39234;53.158;6.322;2023-06-22T02:47:42;13.80;99.90
53152;DHT22;39234;53.158;6.322;2023-06-22T02:50:08;13.70;99.90
53152;DHT22;39234;53.158;6.322;2023-06-22T02:52:34;13.60;99.90
53152;DHT22;39234;53.158;6.322;2023-06-22T02:54:59;13.70;99.90
53152;DHT22;39234;53.158;6.322;2023-06-22T02:57:25;13.40;99.90
53152;DHT22;39234;53.158;6.322;2023-06-22T02:59:51;13.40;99.90
53152;DHT22;39234;53.158;6.322;2023-06-22T03:02:17;13.60;99.90
53152;DHT22;39234;53.158;6.322;2023-06-22T03:04:44;13.50;99.90
53152;DHT22;39234;53.158;6.322;2023-06-22T03:07:09;13.50;99.90
53152;DHT22;39234;53.158;6.322;2023-06-22T03:09:35;13.50;99.90
53152;DHT22;39234;53.158;6.322;2023-06-22T03:12:01;13.30;99.90
53152;DHT22;39234;53.158;6.322;2023-06-22T03:14:27;13.40;99.90
53152;DHT22;39234;53.158;6.322;2023-06-22T03:16:53;13.40;99.90
53152;DHT22;39234;53.158;6.322;2023-06-22T03:19:19;13.40;99.90
53152;DHT22;39234;53.158;6.322;2023-06-22T03:21:47;13.40;99.90
53152;DHT22;39234;53.158;6.322;2023-06-22T03:24:12;13.50;99.90
53152;DHT22;39234;53.158;6.322;2023-06-22T03:26:38;13.60;99.90
53152;DHT22;39234;53.158;6.322;2023-06-22T03:29:04;13.60;99.90
53152;DHT22;39234;53.158;6.322;2023-06-22T03:31:29;13.50;99.90
53152;DHT22;39234;53.158;6.322;2023-06-22T03:33:55;13.60;99.90
53152;DHT22;39234;53.158;6.322;2023-06-22T03:36:21;13.70;99.90
53152;DHT22;39234;53.158;6.322;2023-06-22T03:38:49;13.50;99.90
53152;DHT22;39234;53.158;6.322;2023-06-22T03:41:15;13.70;99.90
53152;DHT22;39234;53.158;6.322;2023-06-22T03:43:41;13.60;99.90
53152;DHT22;39234;53.158;6.322;2023-06-22T03:46:07;13.60;99.90
53152;DHT22;39234;53.158;6.322;2023-06-22T03:48:33;13.60;99.90
53152;DHT22;39234;53.158;6.322;2023-06-22T03:51:00;13.40;99.90
53152;DHT22;39234;53.158;6.322;2023-06-22T03:53:25;13.40;99.90
53152;DHT22;39234;53.158;6.322;2023-06-22T03:55:52;13.50;99.90
53152;DHT22;39234;53.158;6.322;2023-06-22T03:58:19;13.50;99.90
53152;DHT22;39234;53.158;6.322;2023-06-22T04:00:49;13.40;99.90
53152;DHT22;39234;53.158;6.322;2023-06-22T04:03:16;13.70;99.90
53152;DHT22;39234;53.158;6.322;2023-06-22T04:05:42;13.50;99.90
53152;DHT22;39234;53.158;6.322;2023-06-22T04:08:07;13.90;99.90
53152;DHT22;39234;53.158;6.322;2023-06-22T04:10:33;13.80;99.90
53152;DHT22;39234;53.158;6.322;2023-06-22T04:13:00;14.00;99.90
53152;DHT22;39234;53.158;6.322;2023-06-22T04:15:26;13.90;99.90
53152;DHT22;39234;53.158;6.322;2023-06-22T04:17:51;13.80;99.90
53152;DHT22;39234;53.158;6.322;2023-06-22T04:20:17;13.80;99.90
53152;DHT22;39234;53.158;6.322;2023-06-22T04:22:43;14.00;99.90
53152;DHT22;39234;53.158;6.322;2023-06-22T04:25:09;13.90;99.90
53152;DHT22;39234;53.158;6.322;2023-06-22T04:27:35;14.00;99.90
53152;DHT22;39234;53.158;6.322;2023-06-22T04:30:08;13.90;99.90
53152;DHT22;39234;53.158;6.322;2023-06-22T04:32:35;14.20;99.90
53152;DHT22;39234;53.158;6.322;2023-06-22T04:35:04;14.00;99.90
53152;DHT22;39234;53.158;6.322;2023-06-22T04:37:30;14.30;99.90
53152;DHT22;39234;53.158;6.322;2023-06-22T04:39:56;14.20;99.90
53152;DHT22;39234;53.158;6.322;2023-06-22T04:42:22;14.60;99.90
53152;DHT22;39234;53.158;6.322;2023-06-22T04:44:48;14.40;99.90
53152;DHT22;39234;53.158;6.322;2023-06-22T04:47:14;14.70;99.90
53152;DHT22;39234;53.158;6.322;2023-06-22T04:49:40;14.80;99.90
53152;DHT22;39234;53.158;6.322;2023-06-22T04:52:10;14.60;99.90
53152;DHT22;39234;53.158;6.322;2023-06-22T04:54:37;14.70;99.90
53152;DHT22;39234;53.158;6.322;2023-06-22T04:57:05;14.70;99.90
53152;DHT22;39234;53.158;6.322;2023-06-22T04:59:35;14.90;99.90
53152;DHT22;39234;53.158;6.322;2023-06-22T05:02:02;15.10;99.90
53152;DHT22;39234;53.158;6.322;2023-06-22T05:04:29;15.10;99.90
53152;DHT22;39234;53.158;6.322;2023-06-22T05:06:59;15.10;99.90
53152;DHT22;39234;53.158;6.322;2023-06-22T05:09:28;15.30;99.90
53152;DHT22;39234;53.158;6.322;2023-06-22T05:11:54;15.40;99.90
53152;DHT22;39234;53.158;6.322;2023-06-22T05:14:22;15.60;99.90
53152;DHT22;39234;53.158;6.322;2023-06-22T05:16:48;15.70;99.90
53152;DHT22;39234;53.158;6.322;2023-06-22T05:19:14;15.60;99.90
53152;DHT22;39234;53.158;6.322;2023-06-22T05:21:40;15.80;99.90
53152;DHT22;39234;53.158;6.322;2023-06-22T05:24:06;15.90;99.90
53152;DHT22;39234;53.158;6.322;2023-06-22T05:26:34;16.00;99.90
53152;DHT22;39234;53.158;6.322;2023-06-22T05:29:01;16.10;99.90
53152;DHT22;39234;53.158;6.322;2023-06-22T05:31:27;16.30;99.90
53152;DHT22;39234;53.158;6.322;2023-06-22T05:33:54;16.40;99.90
53152;DHT22;39234;53.158;6.322;2023-06-22T05:36:20;16.90;99.90
53152;DHT22;39234;53.158;6.322;2023-06-22T05:38:47;16.70;99.90
53152;DHT22;39234;53.158;6.322;2023-06-22T05:41:13;16.90;99.90
53152;DHT22;39234;53.158;6.322;2023-06-22T05:43:39;17.00;99.90
53152;DHT22;39234;53.158;6.322;2023-06-22T05:46:06;17.10;99.90
53152;DHT22;39234;53.158;6.322;2023-06-22T05:48:32;17.30;99.90
53152;DHT22;39234;53.158;6.322;2023-06-22T05:50:58;17.50;99.90
53152;DHT22;39234;53.158;6.322;2023-06-22T05:53:24;17.40;99.90
53152;DHT22;39234;53.158;6.322;2023-06-22T05:55:50;17.50;99.90
53152;DHT22;39234;53.158;6.322;2023-06-22T05:58:15;17.40;99.90
53152;DHT22;39234;53.158;6.322;2023-06-22T06:00:42;17.50;99.90
53152;DHT22;39234;53.158;6.322;2023-06-22T06:03:09;17.60;99.90
53152;DHT22;39234;53.158;6.322;2023-06-22T06:05:36;17.70;99.90
53152;DHT22;39234;53.158;6.322;2023-06-22T06:08:02;17.80;99.90
53152;DHT22;39234;53.158;6.322;2023-06-22T06:10:30;18.00;99.90
53152;DHT22;39234;53.158;6.322;2023-06-22T06:12:56;18.10;99.90
53152;DHT22;39234;53.158;6.322;2023-06-22T06:15:22;18.10;99.90
53152;DHT22;39234;53.158;6.322;2023-06-22T06:17:50;18.50;99.90
53152;DHT22;39234;53.158;6.322;2023-06-22T06:20:19;18.60;99.90
53152;DHT22;39234;53.158;6.322;2023-06-22T06:22:45;18.90;99.90
53152;DHT22;39234;53.158;6.322;2023-06-22T06:25:11;18.90;99.90
53152;DHT22;39234;53.158;6.322;2023-06-22T06:27:45;19.20;99.90
53152;DHT22;39234;53.158;6.322;2023-06-22T06:30:12;19.20;99.90
53152;DHT22;39234;53.158;6.322;2023-06-22T06:32:38;19.30;99.90
53152;DHT22;39234;53.158;6.322;2023-06-22T06:35:08;19.40;99.90
53152;DHT22;39234;53.158;6.322;2023-06-22T06:37:43;19.60;99.90
53152;DHT22;39234;53.158;6.322;2023-06-22T06:40:10;19.70;99.90
53152;DHT22;39234;53.158;6.322;2023-06-22T06:42:41;19.70;99.90
53152;DHT22;39234;53.158;6.322;2023-06-22T06:45:11;19.80;99.90
53152;DHT22;39234;53.158;6.322;2023-06-22T06:47:37;20.10;99.90
53152;DHT22;39234;53.158;6.322;2023-06-22T06:50:04;20.00;99.90
53152;DHT22;39234;53.158;6.322;2023-06-22T06:52:30;20.30;99.90
53152;DHT22;39234;53.158;6.322;2023-06-22T06:54:56;20.40;99.90
53152;DHT22;39234;53.158;6.322;2023-06-22T06:57:21;20.60;99.90
53152;DHT22;39234;53.158;6.322;2023-06-22T06:59:48;20.70;99.90
53152;DHT22;39234;53.158;6.322;2023-06-22T07:02:15;20.90;99.90
53152;DHT22;39234;53.158;6.322;2023-06-22T07:04:41;20.80;99.90
53152;DHT22;39234;53.158;6.322;2023-06-22T07:07:06;20.90;99.90
53152;DHT22;39234;53.158;6.322;2023-06-22T07:09:32;21.20;99.90
53152;DHT22;39234;53.158;6.322;2023-06-22T07:11:58;21.70;99.90
53152;DHT22;39234;53.158;6.322;2023-06-22T07:14:24;22.10;99.90
53152;DHT22;39234;53.158;6.322;2023-06-22T07:16:49;22.50;99.90
53152;DHT22;39234;53.158;6.322;2023-06-22T07:19:15;22.90;99.90
53152;DHT22;39234;53.158;6.322;2023-06-22T07:21:41;23.30;99.90
53152;DHT22;39234;53.158;6.322;2023-06-22T07:24:07;23.80;99.90
53152;DHT22;39234;53.158;6.322;2023-06-22T07:26:33;24.00;99.90
53152;DHT22;39234;53.158;6.322;2023-06-22T07:28:59;24.20;99.90
53152;DHT22;39234;53.158;6.322;2023-06-22T07:31:25;24.30;99.90
53152;DHT22;39234;53.158;6.322;2023-06-22T07:33:51;24.20;99.90
53152;DHT22;39234;53.158;6.322;2023-06-22T07:36:18;24.70;99.90
53152;DHT22;39234;53.158;6.322;2023-06-22T07:38:43;25.50;99.90
53152;DHT22;39234;53.158;6.322;2023-06-22T07:41:09;25.80;99.90
53152;DHT22;39234;53.158;6.322;2023-06-22T07:43:35;26.00;99.90
53152;DHT22;39234;53.158;6.322;2023-06-22T07:46:05;26.40;99.90
53152;DHT22;39234;53.158;6.322;2023-06-22T07:48:31;26.70;99.90
53152;DHT22;39234;53.158;6.322;2023-06-22T07:50:57;26.70;99.90
53152;DHT22;39234;53.158;6.322;2023-06-22T07:53:23;25.00;99.90
53152;DHT22;39234;53.158;6.322;2023-06-22T07:55:50;27.10;99.90
53152;DHT22;39234;53.158;6.322;2023-06-22T07:58:15;27.30;99.90
53152;DHT22;39234;53.158;6.322;2023-06-22T08:00:44;27.10;99.90
53152;DHT22;39234;53.158;6.322;2023-06-22T08:03:10;26.80;99.90
53152;DHT22;39234;53.158;6.322;2023-06-22T08:05:35;26.50;99.90
53152;DHT22;39234;53.158;6.322;2023-06-22T08:08:01;26.70;99.90
53152;DHT22;39234;53.158;6.322;2023-06-22T08:10:27;26.30;99.90
53152;DHT22;39234;53.158;6.322;2023-06-22T08:12:53;26.10;99.90
53152;DHT22;39234;53.158;6.322;2023-06-22T08:15:19;26.10;99.90
53152;DHT22;39234;53.158;6.322;2023-06-22T08:17:45;26.40;99.90
53152;DHT22;39234;53.158;6.322;2023-06-22T08:20:13;26.30;99.90
53152;DHT22;39234;53.158;6.322;2023-06-22T08:22:42;26.90;99.90
53152;DHT22;39234;53.158;6.322;2023-06-22T08:25:09;27.20;99.90
53152;DHT22;39234;53.158;6.322;2023-06-22T08:27:35;27.40;99.90
53152;DHT22;39234;53.158;6.322;2023-06-22T08:30:02;27.30;99.90
53152;DHT22;39234;53.158;6.322;2023-06-22T08:32:28;27.60;99.90
53152;DHT22;39234;53.158;6.322;2023-06-22T08:34:57;27.50;99.90
53152;DHT22;39234;53.158;6.322;2023-06-22T08:37:23;27.70;99.90
53152;DHT22;39234;53.158;6.322;2023-06-22T08:39:50;28.00;99.90
53152;DHT22;39234;53.158;6.322;2023-06-22T08:42:16;28.10;99.90
53152;DHT22;39234;53.158;6.322;2023-06-22T08:44:42;26.40;99.90
53152;DHT22;39234;53.158;6.322;2023-06-22T08:47:07;28.20;99.90
53152;DHT22;39234;53.158;6.322;2023-06-22T08:49:33;28.00;99.90
53152;DHT22;39234;53.158;6.322;2023-06-22T08:51:59;27.70;99.90
53152;DHT22;39234;53.158;6.322;2023-06-22T08:54:24;28.00;99.90
53152;DHT22;39234;53.158;6.322;2023-06-22T08:56:50;28.00;99.90
53152;DHT22;39234;53.158;6.322;2023-06-22T08:59:16;27.80;99.90
53152;DHT22;39234;53.158;6.322;2023-06-22T09:01:41;27.90;99.90
53152;DHT22;39234;53.158;6.322;2023-06-22T09:04:11;27.70;99.90
53152;DHT22;39234;53.158;6.322;2023-06-22T09:06:37;27.90;99.90
53152;DHT22;39234;53.158;6.322;2023-06-22T09:09:10;28.00;99.90
53152;DHT22;39234;53.158;6.322;2023-06-22T09:11:36;27.60;99.90
53152;DHT22;39234;53.158;6.322;2023-06-22T09:14:02;27.20;99.90
53152;DHT22;39234;53.158;6.322;2023-06-22T09:16:29;27.20;99.90
53152;DHT22;39234;53.158;6.322;2023-06-22T09:18:55;27.00;99.90
53152;DHT22;39234;53.158;6.322;2023-06-22T09:21:20;26.80;99.90
53152;DHT22;39234;53.158;6.322;2023-06-22T09:23:46;26.90;99.90
53152;DHT22;39234;53.158;6.322;2023-06-22T09:26:15;26.50;99.90
53152;DHT22;39234;53.158;6.322;2023-06-22T09:28:41;26.30;99.90
53152;DHT22;39234;53.158;6.322;2023-06-22T09:31:07;25.90;99.90
53152;DHT22;39234;53.158;6.322;2023-06-22T09:33:33;25.50;99.90
53152;DHT22;39234;53.158;6.322;2023-06-22T09:35:58;25.70;99.90
53152;DHT22;39234;53.158;6.322;2023-06-22T09:38:24;25.70;99.90
53152;DHT22;39234;53.158;6.322;2023-06-22T09:40:50;25.90;99.90
53152;DHT22;39234;53.158;6.322;2023-06-22T09:43:16;25.70;99.90
53152;DHT22;39234;53.158;6.322;2023-06-22T09:45:42;25.40;99.90
53152;DHT22;39234;53.158;6.322;2023-06-22T09:48:08;25.50;99.90
53152;DHT22;39234;53.158;6.322;2023-06-22T09:50:35;25.50;99.90
53152;DHT22;39234;53.158;6.322;2023-06-22T09:53:02;25.20;99.90
53152;DHT22;39234;53.158;6.322;2023-06-22T09:55:28;25.00;99.90
53152;DHT22;39234;53.158;6.322;2023-06-22T09:57:54;25.40;99.90
53152;DHT22;39234;53.158;6.322;2023-06-22T10:00:21;25.40;99.90
53152;DHT22;39234;53.158;6.322;2023-06-22T10:02:47;25.20;99.90
53152;DHT22;39234;53.158;6.322;2023-06-22T10:05:13;25.10;99.90
53152;DHT22;39234;53.158;6.322;2023-06-22T10:07:39;25.30;99.90
53152;DHT22;39234;53.158;6.322;2023-06-22T10:10:08;25.30;99.90
53152;DHT22;39234;53.158;6.322;2023-06-22T10:12:34;25.30;99.90
53152;DHT22;39234;53.158;6.322;2023-06-22T10:15:00;24.90;99.90
53152;DHT22;39234;53.158;6.322;2023-06-22T10:17:26;25.00;99.90
53152;DHT22;39234;53.158;6.322;2023-06-22T10:19:51;24.80;99.90
53152;DHT22;39234;53.158;6.322;2023-06-22T10:22:17;24.80;99.90
53152;DHT22;39234;53.158;6.322;2023-06-22T10:24:43;25.30;99.90
53152;DHT22;39234;53.158;6.322;2023-06-22T10:27:13;25.50;99.90
53152;DHT22;39234;53.158;6.322;2023-06-22T10:29:39;25.90;99.90
53152;DHT22;39234;53.158;6.322;2023-06-22T10:32:05;25.70;99.90
53152;DHT22;39234;53.158;6.322;2023-06-22T10:34:31;25.60;99.90
53152;DHT22;39234;53.158;6.322;2023-06-22T10:36:57;25.30;99.90
53152;DHT22;39234;53.158;6.322;2023-06-22T10:39:22;25.10;99.90
53152;DHT22;39234;53.158;6.322;2023-06-22T10:41:48;24.90;99.90
53152;DHT22;39234;53.158;6.322;2023-06-22T10:44:14;24.70;99.90
53152;DHT22;39234;53.158;6.322;2023-06-22T10:46:40;24.70;99.90
53152;DHT22;39234;53.158;6.322;2023-06-22T10:49:05;24.80;99.90
53152;DHT22;39234;53.158;6.322;2023-06-22T10:51:31;25.10;99.90
53152;DHT22;39234;53.158;6.322;2023-06-22T10:53:57;25.10;99.90
53152;DHT22;39234;53.158;6.322;2023-06-22T10:56:23;25.20;99.90
53152;DHT22;39234;53.158;6.322;2023-06-22T10:58:49;25.30;99.90
53152;DHT22;39234;53.158;6.322;2023-06-22T11:01:15;25.20;99.90
53152;DHT22;39234;53.158;6.322;2023-06-22T11:03:40;25.00;99.90
53152;DHT22;39234;53.158;6.322;2023-06-22T11:06:06;25.20;99.90
53152;DHT22;39234;53.158;6.322;2023-06-22T11:08:32;25.50;99.90
53152;DHT22;39234;53.158;6.322;2023-06-22T11:10:58;25.50;99.90
53152;DHT22;39234;53.158;6.322;2023-06-22T11:13:23;25.60;99.90
53152;DHT22;39234;53.158;6.322;2023-06-22T11:15:50;25.40;99.90
53152;DHT22;39234;53.158;6.322;2023-06-22T11:18:16;25.40;99.90
53152;DHT22;39234;53.158;6.322;2023-06-22T11:20:42;25.30;99.90
53152;DHT22;39234;53.158;6.322;2023-06-22T11:23:08;25.30;99.90
53152;DHT22;39234;53.158;6.322;2023-06-22T11:25:34;25.20;99.90
53152;DHT22;39234;53.158;6.322;2023-06-22T11:28:03;25.20;99.90
53152;DHT22;39234;53.158;6.322;2023-06-22T11:30:30;25.30;99.90
53152;DHT22;39234;53.158;6.322;2023-06-22T11:32:58;25.20;99.90
53152;DHT22;39234;53.158;6.322;2023-06-22T11:35:24;25.00;99.90
53152;DHT22;39234;53.158;6.322;2023-06-22T11:37:49;25.20;99.90
53152;DHT22;39234;53.158;6.322;2023-06-22T11:40:15;25.10;99.90
53152;DHT22;39234;53.158;6.322;2023-06-22T11:42:43;25.10;99.90
53152;DHT22;39234;53.158;6.322;2023-06-22T11:45:09;25.10;99.90
53152;DHT22;39234;53.158;6.322;2023-06-22T11:47:35;25.20;99.90
53152;DHT22;39234;53.158;6.322;2023-06-22T11:50:02;25.00;99.90
53152;DHT22;39234;53.158;6.322;2023-06-22T11:52:28;24.80;99.90
53152;DHT22;39234;53.158;6.322;2023-06-22T11:54:54;25.00;99.90
53152;DHT22;39234;53.158;6.322;2023-06-22T11:57:20;25.20;99.90
53152;DHT22;39234;53.158;6.322;2023-06-22T11:59:45;25.20;99.90
53152;DHT22;39234;53.158;6.322;2023-06-22T12:02:11;25.00;99.90
53152;DHT22;39234;53.158;6.322;2023-06-22T12:04:37;25.10;99.90
53152;DHT22;39234;53.158;6.322;2023-06-22T12:07:03;25.10;99.90
53152;DHT22;39234;53.158;6.322;2023-06-22T12:09:29;25.00;99.90
53152;DHT22;39234;53.158;6.322;2023-06-22T12:11:54;24.80;99.90
53152;DHT22;39234;53.158;6.322;2023-06-22T12:14:20;24.50;99.90
53152;DHT22;39234;53.158;6.322;2023-06-22T12:16:46;24.50;99.90
53152;DHT22;39234;53.158;6.322;2023-06-22T12:19:12;24.60;99.90
53152;DHT22;39234;53.158;6.322;2023-06-22T12:21:38;24.80;99.90
53152;DHT22;39234;53.158;6.322;2023-06-22T12:24:04;24.60;99.90
53152;DHT22;39234;53.158;6.322;2023-06-22T12:26:30;24.50;99.90
53152;DHT22;39234;53.158;6.322;2023-06-22T12:28:56;24.30;99.90
53152;DHT22;39234;53.158;6.322;2023-06-22T12:31:21;24.20;99.90
53152;DHT22;39234;53.158;6.322;2023-06-22T12:33:47;24.00;99.90
53152;DHT22;39234;53.158;6.322;2023-06-22T12:36:13;24.10;99.90
53152;DHT22;39234;53.158;6.322;2023-06-22T12:38:39;24.20;99.90
53152;DHT22;39234;53.158;6.322;2023-06-22T12:41:04;24.20;99.90
53152;DHT22;39234;53.158;6.322;2023-06-22T12:43:30;24.00;99.90
53152;DHT22;39234;53.158;6.322;2023-06-22T12:45:56;23.80;99.90
53152;DHT22;39234;53.158;6.322;2023-06-22T12:48:22;24.00;99.90
53152;DHT22;39234;53.158;6.322;2023-06-22T12:50:48;23.70;99.90
53152;DHT22;39234;53.158;6.322;2023-06-22T12:53:14;23.90;99.90
53152;DHT22;39234;53.158;6.322;2023-06-22T12:55:40;23.70;99.90
53152;DHT22;39234;53.158;6.322;2023-06-22T12:58:05;23.80;99.90
53152;DHT22;39234;53.158;6.322;2023-06-22T13:00:31;23.80;99.90
53152;DHT22;39234;53.158;6.322;2023-06-22T13:02:57;23.60;99.90
53152;DHT22;39234;53.158;6.322;2023-06-22T13:05:22;23.60;99.90
53152;DHT22;39234;53.158;6.322;2023-06-22T13:07:48;23.40;99.90
53152;DHT22;39234;53.158;6.322;2023-06-22T13:10:14;23.70;99.90
53152;DHT22;39234;53.158;6.322;2023-06-22T13:12:40;24.50;99.90
53152;DHT22;39234;53.158;6.322;2023-06-22T13:15:06;23.50;99.90
53152;DHT22;39234;53.158;6.322;2023-06-22T13:17:32;23.60;99.90
53152;DHT22;39234;53.158;6.322;2023-06-22T13:19:58;23.70;99.90
53152;DHT22;39234;53.158;6.322;2023-06-22T13:22:34;23.50;99.90
53152;DHT22;39234;53.158;6.322;2023-06-22T13:25:06;23.50;99.90
53152;DHT22;39234;53.158;6.322;2023-06-22T13:27:32;23.50;99.90
53152;DHT22;39234;53.158;6.322;2023-06-22T13:29:58;23.40;99.90
53152;DHT22;39234;53.158;6.322;2023-06-22T13:32:23;23.60;99.90
53152;DHT22;39234;53.158;6.322;2023-06-22T13:34:49;23.30;99.90
53152;DHT22;39234;53.158;6.322;2023-06-22T13:37:15;23.30;99.90
53152;DHT22;39234;53.158;6.322;2023-06-22T13:39:41;23.20;99.90
53152;DHT22;39234;53.158;6.322;2023-06-22T13:42:07;23.40;99.90
53152;DHT22;39234;53.158;6.322;2023-06-22T13:44:33;23.30;99.90
53152;DHT22;39234;53.158;6.322;2023-06-22T13:46:59;23.20;99.90
53152;DHT22;39234;53.158;6.322;2023-06-22T13:49:25;23.30;99.90
53152;DHT22;39234;53.158;6.322;2023-06-22T13:51:51;23.00;99.90
53152;DHT22;39234;53.158;6.322;2023-06-22T13:54:17;23.00;99.90
53152;DHT22;39234;53.158;6.322;2023-06-22T13:56:43;22.70;99.90
53152;DHT22;39234;53.158;6.322;2023-06-22T13:59:08;23.00;99.90
53152;DHT22;39234;53.158;6.322;2023-06-22T14:01:36;22.90;99.90
53152;DHT22;39234;53.158;6.322;2023-06-22T14:04:02;22.80;99.90
53152;DHT22;39234;53.158;6.322;2023-06-22T14:06:28;22.80;99.90
53152;DHT22;39234;53.158;6.322;2023-06-22T14:08:53;22.50;99.90
53152;DHT22;39234;53.158;6.322;2023-06-22T14:11:19;22.50;99.90
53152;DHT22;39234;53.158;6.322;2023-06-22T14:13:45;22.30;99.90
53152;DHT22;39234;53.158;6.322;2023-06-22T14:16:11;22.30;99.90
53152;DHT22;39234;53.158;6.322;2023-06-22T14:18:36;22.40;99.90
53152;DHT22;39234;53.158;6.322;2023-06-22T14:21:02;22.20;99.90
53152;DHT22;39234;53.158;6.322;2023-06-22T14:23:28;22.00;99.90
53152;DHT22;39234;53.158;6.322;2023-06-22T14:25:53;22.20;99.90
53152;DHT22;39234;53.158;6.322;2023-06-22T14:28:19;22.00;99.90
53152;DHT22;39234;53.158;6.322;2023-06-22T14:30:45;21.90;99.90
53152;DHT22;39234;53.158;6.322;2023-06-22T14:33:12;22.10;99.90
53152;DHT22;39234;53.158;6.322;2023-06-22T14:35:38;21.90;99.90
53152;DHT22;39234;53.158;6.322;2023-06-22T14:38:04;21.90;99.90
53152;DHT22;39234;53.158;6.322;2023-06-22T14:40:29;22.00;99.90
53152;DHT22;39234;53.158;6.322;2023-06-22T14:42:55;21.70;99.90
53152;DHT22;39234;53.158;6.322;2023-06-22T14:45:23;21.90;99.90
53152;DHT22;39234;53.158;6.322;2023-06-22T14:47:49;21.90;99.90
53152;DHT22;39234;53.158;6.322;2023-06-22T14:50:14;21.70;99.90
53152;DHT22;39234;53.158;6.322;2023-06-22T14:52:40;21.80;99.90
53152;DHT22;39234;53.158;6.322;2023-06-22T14:55:06;21.80;99.90
53152;DHT22;39234;53.158;6.322;2023-06-22T14:57:32;21.70;99.90
53152;DHT22;39234;53.158;6.322;2023-06-22T14:59:57;21.60;99.90
53152;DHT22;39234;53.158;6.322;2023-06-22T15:02:23;21.60;99.90
53152;DHT22;39234;53.158;6.322;2023-06-22T15:04:49;21.60;99.90
53152;DHT22;39234;53.158;6.322;2023-06-22T15:07:17;21.50;99.90
53152;DHT22;39234;53.158;6.322;2023-06-22T15:09:43;21.60;99.90
53152;DHT22;39234;53.158;6.322;2023-06-22T15:12:10;21.70;99.90
53152;DHT22;39234;53.158;6.322;2023-06-22T15:14:39;21.70;99.90
53152;DHT22;39234;53.158;6.322;2023-06-22T15:17:06;21.60;99.90
53152;DHT22;39234;53.158;6.322;2023-06-22T15:19:35;21.40;99.90
53152;DHT22;39234;53.158;6.322;2023-06-22T15:22:02;21.10;99.90
53152;DHT22;39234;53.158;6.322;2023-06-22T15:24:28;21.40;99.90
53152;DHT22;39234;53.158;6.322;2023-06-22T15:26:54;21.20;99.90
53152;DHT22;39234;53.158;6.322;2023-06-22T15:29:20;21.20;99.90
53152;DHT22;39234;53.158;6.322;2023-06-22T15:31:46;21.20;99.90